createdAt,value
2019-05-13T00:00:16.616Z,102538.13
2019-05-13T00:01:23.321Z,102544.22
2019-05-13T00:02:28.151Z,102539.70
2019-05-13T00:03:33.422Z,102545.03
2019-05-13T00:04:38.837Z,102541.14
2019-05-13T00:05:44.556Z,102541.89
2019-05-13T00:06:54.431Z,102537.60
2019-05-13T00:07:56.891Z,102535.55
2019-05-13T00:09:03.522Z,102535.09
2019-05-13T00:10:08.307Z,102536.85
2019-05-13T00:11:13.790Z,102535.09
2019-05-13T00:12:19.131Z,102535.52
2019-05-13T00:13:24.439Z,102534.95
2019-05-13T00:14:28.867Z,102534.25
2019-05-13T00:15:34.357Z,102533.36
2019-05-13T00:16:38.906Z,102529.85
2019-05-13T00:17:44.611Z,102527.05
2019-05-13T00:18:49.270Z,102525.13
2019-05-13T00:19:54.254Z,102529.62
2019-05-13T00:20:58.661Z,102530.41
2019-05-13T00:22:04.007Z,102526.77
2019-05-13T00:23:08.522Z,102529.93
2019-05-13T00:24:13.924Z,102535.90
2019-05-13T00:25:19.818Z,102533.06
2019-05-13T00:26:24.849Z,102534.26
2019-05-13T00:27:29.255Z,102529.62
2019-05-13T00:28:34.585Z,102531.34
2019-05-13T00:29:39.393Z,102531.65
2019-05-13T00:30:44.788Z,102536.31
2019-05-13T00:31:49.183Z,102533.62
2019-05-13T00:32:54.670Z,102533.62
2019-05-13T00:33:59.160Z,102536.65
2019-05-13T00:35:04.594Z,102532.32
2019-05-13T00:36:09.027Z,102537.06
2019-05-13T00:37:14.747Z,102539.33
2019-05-13T00:38:19.326Z,102535.56
2019-05-13T00:39:24.790Z,102533.44
2019-05-13T00:40:29.279Z,102533.47
2019-05-13T00:41:34.255Z,102538.62
2019-05-13T00:42:38.671Z,102538.13
2019-05-13T00:43:44.494Z,102536.38
2019-05-13T00:44:49.049Z,102535.48
2019-05-13T00:45:54.027Z,102540.56
2019-05-13T00:46:59.411Z,102537.55
2019-05-13T00:48:04.949Z,102538.99
2019-05-13T00:49:09.335Z,102538.99
2019-05-13T00:50:14.599Z,102538.17
2019-05-13T00:51:18.974Z,102533.92
2019-05-13T00:52:23.956Z,102533.92
2019-05-13T00:53:28.352Z,102533.81
2019-05-13T00:54:34.259Z,102543.39
2019-05-13T00:55:38.940Z,102540.75
2019-05-13T00:56:43.910Z,102539.92
2019-05-13T00:57:49.389Z,102535.41
2019-05-13T00:58:54.429Z,102532.91
2019-05-13T00:59:59.166Z,102534.85
2019-05-13T01:01:04.200Z,102539.14
2019-05-13T01:02:08.609Z,102537.39
2019-05-13T01:03:14.458Z,102537.91
2019-05-13T01:04:18.908Z,102537.55
2019-05-13T01:05:23.894Z,102540.04
2019-05-13T01:06:28.689Z,102543.66
2019-05-13T01:07:34.142Z,102543.25
2019-05-13T01:08:38.722Z,102541.83
2019-05-13T01:09:44.324Z,102546.83
2019-05-13T01:10:48.898Z,102543.02
2019-05-13T01:11:53.895Z,102544.40
2019-05-13T01:12:59.558Z,102542.50
2019-05-13T01:14:04.668Z,102545.44
2019-05-13T01:15:09.297Z,102540.59
2019-05-13T01:16:15.402Z,102541.00
2019-05-13T01:17:19.815Z,102539.28
2019-05-13T01:18:24.851Z,102540.03
2019-05-13T01:19:29.327Z,102539.47
2019-05-13T01:20:35.295Z,102535.92
2019-05-13T01:21:39.704Z,102540.17
2019-05-13T01:22:44.737Z,102540.54
2019-05-13T01:23:50.517Z,102539.16
2019-05-13T01:24:55.485Z,102541.20
2019-05-13T01:26:00.079Z,102545.15
2019-05-13T01:27:05.115Z,102546.45
2019-05-13T01:28:09.594Z,102546.86
2019-05-13T01:29:14.559Z,102545.92
2019-05-13T01:30:19.429Z,102544.17
2019-05-13T01:31:24.423Z,102544.06
2019-05-13T01:32:28.837Z,102547.97
2019-05-13T01:33:35.010Z,102547.56
2019-05-13T01:34:39.590Z,102546.78
2019-05-13T01:35:44.942Z,102549.95
2019-05-13T01:36:49.349Z,102547.23
2019-05-13T01:37:54.326Z,102546.66
2019-05-13T01:38:58.729Z,102547.93
2019-05-13T01:40:05.172Z,102548.27
2019-05-13T01:41:09.849Z,102549.52
2019-05-13T01:42:15.319Z,102548.63
2019-05-13T01:43:20.038Z,102552.70
2019-05-13T01:44:25.008Z,102548.02
2019-05-13T01:45:29.443Z,102549.73
2019-05-13T01:46:34.856Z,102547.19
2019-05-13T01:47:39.275Z,102550.21
2019-05-13T01:48:44.303Z,102557.27
2019-05-13T01:49:48.714Z,102554.69
2019-05-13T01:50:54.348Z,102552.98
2019-05-13T01:51:58.771Z,102556.04
2019-05-13T01:53:04.502Z,102558.04
2019-05-13T01:54:09.461Z,102554.94
2019-05-13T01:55:14.864Z,102562.73
2019-05-13T01:56:19.295Z,102554.74
2019-05-13T01:57:24.263Z,102563.98
2019-05-13T01:58:28.675Z,102560.89
2019-05-13T01:59:34.601Z,102563.91
2019-05-13T02:00:39.364Z,102561.75
2019-05-13T02:01:44.743Z,102560.97
2019-05-13T02:02:50.224Z,102561.83
2019-05-13T02:03:55.216Z,102562.69
2019-05-13T02:04:59.632Z,102564.44
2019-05-13T02:06:04.755Z,102564.81
2019-05-13T02:07:09.163Z,102565.13
2019-05-13T02:08:14.569Z,102567.58
2019-05-13T02:09:19.092Z,102567.47
2019-05-13T02:10:44.352Z,102564.33
2019-05-13T02:11:48.239Z,102568.23
2019-05-13T02:12:53.569Z,102564.23
2019-05-13T02:13:57.994Z,102567.66
2019-05-13T02:15:04.383Z,102570.23
2019-05-13T02:16:08.968Z,102567.50
2019-05-13T02:17:14.732Z,102571.53
2019-05-13T02:18:19.266Z,102569.34
2019-05-13T02:19:24.614Z,102575.45
2019-05-13T02:20:29.035Z,102570.72
2019-05-13T02:21:34.092Z,102575.94
2019-05-13T02:22:38.501Z,102575.33
2019-05-13T02:23:44.264Z,102573.94
2019-05-13T02:24:48.834Z,102580.91
2019-05-13T02:25:54.662Z,102583.06
2019-05-13T02:26:59.550Z,102584.28
2019-05-13T02:28:08.933Z,102589.58
2019-05-13T02:29:11.036Z,102585.55
2019-05-13T02:30:16.696Z,102580.73
2019-05-13T02:31:38.930Z,102579.52
2019-05-13T02:32:27.890Z,102583.71
2019-05-13T02:33:33.983Z,102587.22
2019-05-13T02:34:38.973Z,102575.12
2019-05-13T02:35:43.680Z,102583.42
2019-05-13T02:36:48.787Z,102581.27
2019-05-13T02:37:53.195Z,102575.16
2019-05-13T02:38:58.167Z,102585.14
2019-05-13T02:40:03.585Z,102588.11
2019-05-13T02:41:09.365Z,102589.82
2019-05-13T02:42:13.793Z,102594.99
2019-05-13T02:43:18.756Z,102597.06
2019-05-13T02:44:23.239Z,102589.34
2019-05-13T02:45:28.585Z,102595.35
2019-05-13T02:46:34.062Z,102589.53
2019-05-13T02:47:39.173Z,102592.94
2019-05-13T02:48:43.579Z,102592.41
2019-05-13T02:49:48.582Z,102588.50
2019-05-13T02:50:53.981Z,102602.30
2019-05-13T02:52:02.436Z,102594.00
2019-05-13T02:53:05.698Z,102597.98
2019-05-13T02:54:12.424Z,102600.47
2019-05-13T02:55:16.942Z,102596.52
2019-05-13T02:56:22.695Z,102600.34
2019-05-13T02:57:27.315Z,102601.31
2019-05-13T02:58:33.318Z,102599.94
2019-05-13T02:59:38.243Z,102598.99
2019-05-13T03:00:44.189Z,102598.95
2019-05-13T03:01:52.992Z,102609.01
2019-05-13T03:02:55.623Z,102607.70
2019-05-13T03:04:02.914Z,102604.25
2019-05-13T03:05:07.648Z,102604.16
2019-05-13T03:06:13.436Z,102605.83
2019-05-13T03:07:18.663Z,102602.27
2019-05-13T03:08:39.833Z,102606.10
2019-05-13T03:09:32.537Z,102604.34
2019-05-13T03:10:36.546Z,102608.12
2019-05-13T03:11:42.548Z,102612.63
2019-05-13T03:12:47.327Z,102604.70
2019-05-13T03:13:53.374Z,102609.02
2019-05-13T03:14:58.004Z,102603.81
2019-05-13T03:16:13.796Z,102609.02
2019-05-13T03:17:22.369Z,102615.49
2019-05-13T03:18:26.938Z,102610.97
2019-05-13T03:19:33.228Z,102613.30
2019-05-13T03:20:38.423Z,102616.53
2019-05-13T03:21:44.873Z,102613.43
2019-05-13T03:22:52.505Z,102613.43
2019-05-13T03:23:55.907Z,102614.65
2019-05-13T03:25:03.095Z,102613.30
2019-05-13T03:26:07.124Z,102618.52
2019-05-13T03:27:12.912Z,102613.30
2019-05-13T03:28:17.616Z,102616.80
2019-05-13T03:29:22.656Z,102617.66
2019-05-13T03:30:27.143Z,102620.88
2019-05-13T03:31:35.986Z,102618.73
2019-05-13T03:32:50.459Z,102622.23
2019-05-13T03:33:47.553Z,102616.63
2019-05-13T03:34:55.979Z,102620.04
2019-05-13T03:35:59.052Z,102619.63
2019-05-13T03:37:06.824Z,102616.53
2019-05-13T03:38:12.792Z,102623.49
2019-05-13T03:39:16.878Z,102627.50
2019-05-13T03:40:23.330Z,102619.27
2019-05-13T03:41:32.724Z,102625.83
2019-05-13T03:42:42.282Z,102623.77
2019-05-13T03:43:45.794Z,102626.01
2019-05-13T03:44:53.946Z,102619.91
2019-05-13T03:46:03.401Z,102619.14
2019-05-13T03:47:12.509Z,102629.20
2019-05-13T03:48:17.158Z,102632.75
2019-05-13T03:49:25.168Z,102631.71
2019-05-13T03:50:34.167Z,102625.29
2019-05-13T03:51:37.280Z,102632.34
2019-05-13T03:52:43.382Z,102628.92
2019-05-13T03:53:53.247Z,102633.73
2019-05-13T03:54:56.767Z,102631.16
2019-05-13T03:56:02.835Z,102628.15
2019-05-13T03:57:07.490Z,102623.80
2019-05-13T03:58:13.423Z,102627.42
2019-05-13T03:59:22.264Z,102629.27
2019-05-13T04:00:25.746Z,102629.31
2019-05-13T04:01:32.523Z,102631.56
2019-05-13T04:02:37.186Z,102626.34
2019-05-13T04:03:44.168Z,102629.31
2019-05-13T04:04:52.847Z,102628.59
2019-05-13T04:05:55.706Z,102633.93
2019-05-13T04:07:02.626Z,102634.92
2019-05-13T04:08:08.994Z,102631.86
2019-05-13T04:09:29.826Z,102636.39
2019-05-13T04:10:23.818Z,102638.80
2019-05-13T04:11:29.239Z,102635.91
2019-05-13T04:12:34.282Z,102635.55
2019-05-13T04:13:43.005Z,102636.58
2019-05-13T04:14:47.035Z,102637.77
2019-05-13T04:15:54.750Z,102637.61
2019-05-13T04:17:02.994Z,102626.39
2019-05-13T04:18:12.287Z,102627.38
2019-05-13T04:19:15.306Z,102635.65
2019-05-13T04:20:23.284Z,102636.67
2019-05-13T04:21:28.259Z,102643.43
2019-05-13T04:22:33.507Z,102639.92
2019-05-13T04:23:38.089Z,102638.05
2019-05-13T04:24:43.129Z,102637.83
2019-05-13T04:25:47.790Z,102641.37
2019-05-13T04:26:53.547Z,102636.87
2019-05-13T04:27:58.210Z,102632.25
2019-05-13T04:29:03.431Z,102637.55
2019-05-13T04:30:13.376Z,102644.31
2019-05-13T04:31:17.255Z,102645.73
2019-05-13T04:32:22.993Z,102643.30
2019-05-13T04:33:28.526Z,102644.05
2019-05-13T04:34:33.973Z,102644.43
2019-05-13T04:35:42.370Z,102646.03
2019-05-13T04:36:45.707Z,102641.73
2019-05-13T04:37:52.618Z,102643.27
2019-05-13T04:38:57.796Z,102639.01
2019-05-13T04:40:04.034Z,102648.81
2019-05-13T04:41:11.121Z,102649.41
2019-05-13T04:42:15.796Z,102655.56
2019-05-13T04:43:23.630Z,102651.41
2019-05-13T04:44:28.072Z,102656.57
2019-05-13T04:45:33.225Z,102661.84
2019-05-13T04:46:39.219Z,102657.47
2019-05-13T04:47:43.706Z,102655.03
2019-05-13T04:48:48.693Z,102657.86
2019-05-13T04:49:53.641Z,102660.61
2019-05-13T04:51:02.666Z,102662.09
2019-05-13T04:52:05.507Z,102662.95
2019-05-13T04:53:13.640Z,102655.66
2019-05-13T04:54:16.844Z,102663.50
2019-05-13T04:55:23.065Z,102661.16
2019-05-13T04:56:27.681Z,102659.89
2019-05-13T04:57:33.347Z,102660.09
2019-05-13T04:58:38.401Z,102659.91
2019-05-13T04:59:44.518Z,102667.10
2019-05-13T05:01:14.533Z,102663.69
2019-05-13T05:02:54.804Z,102666.27
2019-05-13T05:04:24.239Z,102663.77
2019-05-13T05:05:52.884Z,102665.58
2019-05-13T05:07:23.048Z,102670.14
2019-05-13T05:08:53.050Z,102664.78
2019-05-13T05:10:17.413Z,102676.59
2019-05-13T05:11:42.703Z,102669.66
2019-05-13T05:13:08.597Z,102673.59
2019-05-13T05:14:22.263Z,102674.99
2019-05-13T05:15:52.740Z,102672.91
2019-05-13T05:16:58.329Z,102676.31
2019-05-13T05:18:34.377Z,102685.19
2019-05-13T05:19:48.196Z,102680.60
2019-05-13T05:21:21.686Z,102678.70
2019-05-13T05:22:57.416Z,102683.87
2019-05-13T05:24:12.903Z,102686.73
2019-05-13T05:25:41.640Z,102686.34
2019-05-13T05:27:14.008Z,102686.11
2019-05-13T05:28:52.520Z,102683.36
2019-05-13T05:30:05.866Z,102685.94
2019-05-13T05:31:36.453Z,102686.69
2019-05-13T05:33:02.173Z,102678.18
2019-05-13T05:34:26.439Z,102681.79
2019-05-13T05:35:36.802Z,102688.45
2019-05-13T05:37:05.984Z,102687.87
2019-05-13T05:38:26.231Z,102690.73
2019-05-13T05:39:31.708Z,102688.09
2019-05-13T05:40:38.159Z,102679.04
2019-05-13T05:41:45.988Z,102683.97
2019-05-13T05:42:52.410Z,102688.00
2019-05-13T05:44:02.180Z,102686.36
2019-05-13T05:45:06.881Z,102685.30
2019-05-13T05:46:14.162Z,102686.36
2019-05-13T05:47:21.524Z,102685.16
2019-05-13T05:48:27.700Z,102684.19
2019-05-13T05:49:32.389Z,102694.67
2019-05-13T05:50:37.963Z,102683.73
2019-05-13T05:51:44.529Z,102695.80
2019-05-13T05:52:51.410Z,102695.95
2019-05-13T05:53:58.156Z,102691.05
2019-05-13T05:55:04.282Z,102683.61
2019-05-13T05:56:11.747Z,102680.89
2019-05-13T05:57:18.259Z,102690.48
2019-05-13T05:58:24.016Z,102694.06
2019-05-13T05:59:32.027Z,102690.30
2019-05-13T06:00:41.338Z,102683.13
2019-05-13T06:01:48.021Z,102698.39
2019-05-13T06:02:54.452Z,102690.48
2019-05-13T06:04:01.550Z,102685.56
2019-05-13T06:05:07.452Z,102692.35
2019-05-13T06:06:15.702Z,102693.50
2019-05-13T06:07:21.980Z,102687.86
2019-05-13T06:08:27.109Z,102682.45
2019-05-13T06:09:32.402Z,102689.30
2019-05-13T06:10:49.055Z,102686.59
2019-05-13T06:11:44.896Z,102687.47
2019-05-13T06:12:52.282Z,102684.80
2019-05-13T06:13:56.962Z,102688.84
2019-05-13T06:15:02.798Z,102686.80
2019-05-13T06:16:07.676Z,102685.44
2019-05-13T06:17:12.730Z,102690.27
2019-05-13T06:18:17.629Z,102693.14
2019-05-13T06:19:22.750Z,102692.97
2019-05-13T06:20:27.341Z,102670.86
2019-05-13T06:21:32.457Z,102670.86
2019-05-13T06:22:37.016Z,102685.32
2019-05-13T06:23:42.143Z,102689.33
2019-05-13T06:24:46.648Z,102689.33
2019-05-13T06:25:52.652Z,102692.35
2019-05-13T06:26:57.829Z,102690.07
2019-05-13T06:28:02.953Z,102679.47
2019-05-13T06:29:07.507Z,102693.89
2019-05-13T06:30:13.336Z,102690.36
2019-05-13T06:31:21.359Z,102690.23
2019-05-13T06:32:26.701Z,102687.89
2019-05-13T06:33:31.807Z,102689.42
2019-05-13T06:34:36.877Z,102684.94
2019-05-13T06:35:44.799Z,102670.05
2019-05-13T06:36:49.017Z,102690.96
2019-05-13T06:37:53.781Z,102690.17
2019-05-13T06:38:58.902Z,102690.52
2019-05-13T06:40:03.388Z,102669.12
2019-05-13T06:41:12.250Z,102685.94
2019-05-13T06:42:14.500Z,102691.25
2019-05-13T06:43:21.162Z,102698.95
2019-05-13T06:44:26.017Z,102689.19
2019-05-13T06:45:31.714Z,102689.19
2019-05-13T06:46:36.335Z,102688.72
2019-05-13T06:47:41.688Z,102688.65
2019-05-13T06:48:46.177Z,102686.86
2019-05-13T06:49:51.719Z,102667.16
2019-05-13T06:50:56.236Z,102685.42
2019-05-13T06:52:01.898Z,102679.98
2019-05-13T06:53:08.392Z,102683.78
2019-05-13T06:54:13.226Z,102686.67
2019-05-13T06:55:17.716Z,102685.87
2019-05-13T06:56:22.717Z,102687.41
2019-05-13T06:57:27.177Z,102685.96
2019-05-13T06:58:32.634Z,102685.11
2019-05-13T06:59:37.155Z,102686.00
2019-05-13T07:00:42.891Z,102684.81
2019-05-13T07:01:47.432Z,102690.51
2019-05-13T07:02:52.851Z,102696.20
2019-05-13T07:03:57.267Z,102684.34
2019-05-13T07:05:02.586Z,102686.94
2019-05-13T07:06:07.133Z,102686.99
2019-05-13T07:07:16.232Z,102694.53
2019-05-13T07:08:18.368Z,102697.34
2019-05-13T07:09:23.383Z,102691.64
2019-05-13T07:10:27.769Z,102690.99
2019-05-13T07:11:32.806Z,102688.98
2019-05-13T07:12:37.236Z,102695.41
2019-05-13T07:13:42.356Z,102692.13
2019-05-13T07:14:48.224Z,102694.66
2019-05-13T07:15:53.220Z,102695.27
2019-05-13T07:16:57.645Z,102691.91
2019-05-13T07:18:02.624Z,102698.23
2019-05-13T07:19:07.047Z,102700.13
2019-05-13T07:20:12.268Z,102697.15
2019-05-13T07:21:16.701Z,102692.76
2019-05-13T07:22:23.600Z,102690.58
2019-05-13T07:23:28.160Z,102692.73
2019-05-13T07:24:33.310Z,102693.98
2019-05-13T07:25:37.737Z,102684.84
2019-05-13T07:26:42.799Z,102693.98
2019-05-13T07:27:47.501Z,102690.88
2019-05-13T07:28:53.034Z,102680.30
2019-05-13T07:29:57.383Z,102681.94
2019-05-13T07:31:02.479Z,102693.88
2019-05-13T07:32:08.329Z,102694.56
2019-05-13T07:33:13.935Z,102691.87
2019-05-13T07:34:18.415Z,102689.81
2019-05-13T07:35:23.404Z,102690.88
2019-05-13T07:36:27.887Z,102693.45
2019-05-13T07:37:33.936Z,102689.50
2019-05-13T07:38:38.541Z,102692.53
2019-05-13T07:39:44.908Z,102692.23
2019-05-13T07:40:52.377Z,102688.91
2019-05-13T07:42:04.332Z,102686.81
2019-05-13T07:43:06.601Z,102684.20
2019-05-13T07:44:11.983Z,102681.20
2019-05-13T07:45:16.541Z,102687.40
2019-05-13T07:46:22.132Z,102682.56
2019-05-13T07:47:26.574Z,102679.45
2019-05-13T07:48:32.143Z,102678.56
2019-05-13T07:49:36.636Z,102678.93
2019-05-13T07:50:54.648Z,102675.07
2019-05-13T07:51:47.829Z,102678.14
2019-05-13T07:52:52.823Z,102676.39
2019-05-13T07:53:57.309Z,102678.63
2019-05-13T07:55:02.361Z,102678.22
2019-05-13T07:56:06.776Z,102676.44
2019-05-13T07:57:12.300Z,102676.42
2019-05-13T07:58:17.229Z,102677.33
2019-05-13T07:59:22.200Z,102668.91
2019-05-13T08:00:27.039Z,102672.45
2019-05-13T08:01:32.835Z,102676.31
2019-05-13T08:02:37.537Z,102676.41
2019-05-13T08:03:42.508Z,102672.02
2019-05-13T08:04:49.374Z,102677.32
2019-05-13T08:05:54.006Z,102673.82
2019-05-13T08:06:58.507Z,102668.50
2019-05-13T08:08:03.569Z,102673.82
2019-05-13T08:09:12.605Z,102674.70
2019-05-13T08:10:16.315Z,102672.05
2019-05-13T08:11:22.401Z,102673.36
2019-05-13T08:12:27.496Z,102679.97
2019-05-13T08:13:32.159Z,102675.06
2019-05-13T08:14:37.136Z,102679.54
2019-05-13T08:15:42.423Z,102677.33
2019-05-13T08:16:47.449Z,102679.91
2019-05-13T08:17:52.571Z,102675.45
2019-05-13T08:18:57.646Z,102677.28
2019-05-13T08:20:02.989Z,102680.00
2019-05-13T08:21:09.259Z,102677.78
2019-05-13T08:22:13.852Z,102674.66
2019-05-13T08:23:21.541Z,102675.50
2019-05-13T08:24:25.107Z,102675.38
2019-05-13T08:25:31.564Z,102672.31
2019-05-13T08:26:38.045Z,102672.73
2019-05-13T08:27:42.837Z,102672.62
2019-05-13T08:29:00.110Z,102668.72
2019-05-13T08:29:53.958Z,102665.67
2019-05-13T08:30:58.685Z,102672.12
2019-05-13T08:32:03.666Z,102667.34
2019-05-13T08:33:08.175Z,102666.45
2019-05-13T08:34:13.175Z,102664.50
2019-05-13T08:35:17.901Z,102673.40
2019-05-13T08:36:23.621Z,102670.63
2019-05-13T08:37:28.517Z,102667.11
2019-05-13T08:38:33.512Z,102664.41
2019-05-13T08:39:38.711Z,102665.32
2019-05-13T08:40:44.262Z,102670.19
2019-05-13T08:41:48.680Z,102658.66
2019-05-13T08:42:53.742Z,102658.54
2019-05-13T08:43:58.233Z,102657.94
2019-05-13T08:45:03.285Z,102665.28
2019-05-13T08:46:08.409Z,102670.73
2019-05-13T08:47:13.453Z,102668.46
2019-05-13T08:48:17.893Z,102665.81
2019-05-13T08:49:22.928Z,102663.55
2019-05-13T08:50:27.815Z,102670.67
2019-05-13T08:51:34.815Z,102668.52
2019-05-13T08:52:39.071Z,102667.20
2019-05-13T08:53:44.079Z,102672.48
2019-05-13T08:54:48.482Z,102665.38
2019-05-13T08:55:53.735Z,102670.72
2019-05-13T08:56:58.220Z,102668.97
2019-05-13T08:58:03.257Z,102668.97
2019-05-13T08:59:07.756Z,102660.40
2019-05-13T09:00:13.662Z,102664.30
2019-05-13T09:01:22.506Z,102661.79
2019-05-13T09:02:26.381Z,102659.72
2019-05-13T09:03:32.538Z,102669.88
2019-05-13T09:04:38.816Z,102663.22
2019-05-13T09:05:43.473Z,102667.98
2019-05-13T09:06:48.611Z,102664.52
2019-05-13T09:07:53.619Z,102663.67
2019-05-13T09:08:58.675Z,102661.44
2019-05-13T09:10:04.199Z,102665.84
2019-05-13T09:11:09.184Z,102667.59
2019-05-13T09:12:28.564Z,102671.95
2019-05-13T09:13:22.374Z,102667.54
2019-05-13T09:14:27.142Z,102664.41
2019-05-13T09:15:32.179Z,102658.22
2019-05-13T09:16:36.695Z,102667.05
2019-05-13T09:17:42.746Z,102668.35
2019-05-13T09:18:47.162Z,102674.02
2019-05-13T09:19:52.189Z,102659.15
2019-05-13T09:20:56.768Z,102665.87
2019-05-13T09:22:03.124Z,102665.44
2019-05-13T09:23:07.934Z,102664.30
2019-05-13T09:24:24.603Z,102663.25
2019-05-13T09:25:21.413Z,102653.45
2019-05-13T09:26:26.066Z,102660.87
2019-05-13T09:27:31.848Z,102653.95
2019-05-13T09:28:36.946Z,102649.47
2019-05-13T09:29:42.769Z,102657.25
2019-05-13T09:30:47.941Z,102661.31
2019-05-13T09:31:52.546Z,102663.14
2019-05-13T09:32:57.538Z,102657.58
2019-05-13T09:34:02.051Z,102658.72
2019-05-13T09:35:07.463Z,102663.59
2019-05-13T09:36:12.658Z,102662.23
2019-05-13T09:37:18.037Z,102658.75
2019-05-13T09:38:22.463Z,102651.66
2019-05-13T09:39:27.851Z,102654.78
2019-05-13T09:40:32.264Z,102655.22
2019-05-13T09:41:41.224Z,102653.32
2019-05-13T09:42:49.068Z,102650.22
2019-05-13T09:43:51.414Z,102647.22
2019-05-13T09:44:55.911Z,102645.77
2019-05-13T09:46:01.974Z,102650.56
2019-05-13T09:47:06.465Z,102651.68
2019-05-13T09:48:12.938Z,102639.84
2019-05-13T09:49:20.181Z,102646.41
2019-05-13T09:50:32.155Z,102642.39
2019-05-13T09:51:32.373Z,102643.65
2019-05-13T09:52:39.762Z,102652.02
2019-05-13T09:53:43.963Z,102650.09
2019-05-13T09:54:48.962Z,102654.23
2019-05-13T09:55:53.524Z,102656.52
2019-05-13T09:56:58.498Z,102657.44
2019-05-13T09:58:02.932Z,102660.55
2019-05-13T09:59:08.212Z,102657.94
2019-05-13T10:00:13.741Z,102659.70
2019-05-13T10:01:18.787Z,102657.92
2019-05-13T10:02:23.278Z,102660.56
2019-05-13T10:03:29.762Z,102653.55
2019-05-13T10:04:34.397Z,102650.00
2019-05-13T10:05:39.384Z,102646.02
2019-05-13T10:06:43.953Z,102648.23
2019-05-13T10:07:48.929Z,102653.99
2019-05-13T10:08:54.421Z,102644.69
2019-05-13T10:10:01.613Z,102646.45
2019-05-13T10:11:05.616Z,102646.27
2019-05-13T10:12:12.103Z,102647.11
2019-05-13T10:13:16.931Z,102647.84
2019-05-13T10:14:23.081Z,102646.23
2019-05-13T10:15:28.076Z,102647.28
2019-05-13T10:16:33.114Z,102647.35
2019-05-13T10:17:37.539Z,102651.36
2019-05-13T10:18:42.589Z,102643.55
2019-05-13T10:19:47.010Z,102629.25
2019-05-13T10:20:59.062Z,102652.22
2019-05-13T10:22:03.818Z,102653.32
2019-05-13T10:23:09.087Z,102658.50
2019-05-13T10:24:13.573Z,102651.68
2019-05-13T10:25:22.416Z,102653.22
2019-05-13T10:26:26.791Z,102648.25
2019-05-13T10:27:32.793Z,102642.79
2019-05-13T10:28:37.582Z,102656.16
2019-05-13T10:29:43.277Z,102651.33
2019-05-13T10:30:48.665Z,102648.26
2019-05-13T10:31:54.175Z,102659.70
2019-05-13T10:32:59.567Z,102652.63
2019-05-13T10:34:05.462Z,102655.30
2019-05-13T10:35:10.518Z,102658.81
2019-05-13T10:36:15.588Z,102661.90
2019-05-13T10:37:22.061Z,102653.08
2019-05-13T10:38:27.956Z,102658.37
2019-05-13T10:39:34.595Z,102660.61
2019-05-13T10:40:43.310Z,102662.34
2019-05-13T10:41:46.928Z,102652.17
2019-05-13T10:42:52.460Z,102652.67
2019-05-13T10:43:56.967Z,102660.61
2019-05-13T10:45:02.734Z,102658.80
2019-05-13T10:46:08.415Z,102656.53
2019-05-13T10:47:13.391Z,102655.10
2019-05-13T10:48:17.807Z,102656.42
2019-05-13T10:49:22.802Z,102656.52
2019-05-13T10:50:27.803Z,102660.36
2019-05-13T10:51:33.044Z,102654.80
2019-05-13T10:52:37.529Z,102656.97
2019-05-13T10:53:42.863Z,102654.13
2019-05-13T10:55:09.319Z,102657.34
2019-05-13T10:56:14.530Z,102662.78
2019-05-13T10:57:19.457Z,102653.26
2019-05-13T10:58:24.428Z,102645.62
2019-05-13T10:59:28.851Z,102645.11
2019-05-13T11:00:42.935Z,102646.91
2019-05-13T11:01:47.502Z,102638.78
2019-05-13T11:02:52.472Z,102641.95
2019-05-13T11:03:56.964Z,102636.97
2019-05-13T11:05:03.143Z,102631.25
2019-05-13T11:06:08.063Z,102626.69
2019-05-13T11:07:13.199Z,102621.84
2019-05-13T11:08:18.451Z,102618.96
2019-05-13T11:09:23.493Z,102630.64
2019-05-13T11:10:32.804Z,102620.79
2019-05-13T11:11:37.823Z,102615.03
2019-05-13T11:12:42.603Z,102630.22
2019-05-13T11:13:55.182Z,102636.87
2019-05-13T11:14:55.345Z,102630.84
2019-05-13T11:16:02.381Z,102627.25
2019-05-13T11:17:06.761Z,102635.78
2019-05-13T11:18:18.931Z,102632.25
2019-05-13T11:19:17.853Z,102639.44
2019-05-13T11:20:23.242Z,102627.50
2019-05-13T11:21:28.066Z,102633.26
2019-05-13T11:22:33.048Z,102637.20
2019-05-13T11:23:37.463Z,102638.08
2019-05-13T11:24:43.305Z,102633.21
2019-05-13T11:25:48.100Z,102634.41
2019-05-13T11:26:53.434Z,102620.16
2019-05-13T11:27:58.560Z,102628.28
2019-05-13T11:29:04.897Z,102624.72
2019-05-13T11:30:10.269Z,102627.02
2019-05-13T11:31:15.725Z,102611.31
2019-05-13T11:32:22.271Z,102617.47
2019-05-13T11:33:26.901Z,102616.21
2019-05-13T11:34:32.961Z,102615.72
2019-05-13T11:35:38.313Z,102604.20
2019-05-13T11:36:43.891Z,102608.68
2019-05-13T11:37:48.871Z,102608.44
2019-05-13T11:38:53.428Z,102605.06
2019-05-13T11:39:58.725Z,102602.06
2019-05-13T11:41:03.871Z,102599.72
2019-05-13T11:42:08.927Z,102596.81
2019-05-13T11:43:13.495Z,102596.52
2019-05-13T11:44:18.530Z,102594.75
2019-05-13T11:45:23.277Z,102599.03
2019-05-13T11:46:28.585Z,102605.58
2019-05-13T11:47:33.020Z,102604.59
2019-05-13T11:48:37.991Z,102610.80
2019-05-13T11:49:42.771Z,102604.74
2019-05-13T11:50:50.545Z,102597.39
2019-05-13T11:51:54.107Z,102605.36
2019-05-13T11:53:02.920Z,102597.80
2019-05-13T11:54:05.544Z,102602.69
2019-05-13T11:55:13.042Z,102597.52
2019-05-13T11:56:17.723Z,102606.33
2019-05-13T11:57:22.713Z,102589.14
2019-05-13T11:58:27.334Z,102601.39
2019-05-13T11:59:33.129Z,102599.37
2019-05-13T12:00:53.326Z,102594.38
2019-05-13T12:01:58.718Z,102592.55
2019-05-13T12:03:04.252Z,102601.46
2019-05-13T12:04:09.656Z,102592.58
2019-05-13T12:05:14.811Z,102589.78
2019-05-13T12:06:22.934Z,102581.62
2019-05-13T12:07:26.056Z,102586.28
2019-05-13T12:08:33.855Z,102584.07
2019-05-13T12:09:37.219Z,102582.92
2019-05-13T12:10:43.994Z,102573.31
2019-05-13T12:11:48.635Z,102576.02
2019-05-13T12:12:53.629Z,102578.48
2019-05-13T12:13:58.040Z,102586.97
2019-05-13T12:15:26.572Z,102583.71
2019-05-13T12:16:12.934Z,102575.19
2019-05-13T12:17:17.164Z,102582.99
2019-05-13T12:18:23.696Z,102579.70
2019-05-13T12:19:28.326Z,102573.73
2019-05-13T12:20:32.976Z,102579.05
2019-05-13T12:21:43.414Z,102567.27
2019-05-13T12:22:44.080Z,102575.05
2019-05-13T12:23:49.211Z,102569.91
2019-05-13T12:24:53.625Z,102560.32
2019-05-13T12:25:58.670Z,102574.72
2019-05-13T12:27:03.948Z,102563.34
2019-05-13T12:28:11.363Z,102570.56
2019-05-13T12:29:19.181Z,102570.25
2019-05-13T12:30:23.894Z,102584.31
2019-05-13T12:31:28.313Z,102589.16
2019-05-13T12:32:33.326Z,102587.73
2019-05-13T12:33:37.816Z,102577.73
2019-05-13T12:34:45.788Z,102582.99
2019-05-13T12:35:52.555Z,102586.83
2019-05-13T12:36:56.688Z,102577.98